Marcel — ONDP — position and weather

sailwx.info

Track history (hours):
 
Tides and Currents Weather Stations Pressure Air Temp Water Temp Dewpoint Dewpoint Depression Visibility Wind Speed Wind Dir Waves Ship Positions

Marcel

Last reported at 2017-Jun-24 01:26 UTC. Time now 2017-Jun-24 01:50 UTC.
Position N 51°04' E 001°46'.

Length 88 m; draft 4 m.

Type: Cargo ship. MMSI: 205439000.

Date/timePositionNaut miles runAvg speedWind from/ knotsBaromVisibWave heightAir tempDewpointWater temp
2017-Jun-24 01:26N 51°04' E 001°46'4 7.6
2017-Jun-24 00:51N 51°02' E 001°52'3 7.3
2017-Jun-24 00:25N 51°02' E 001°57'3 6.9
2017-Jun-24 00:00N 51°03' E 002°01'4 7.2
2017-Jun-23 23:29N 51°03' E 002°07'4 7.5
2017-Jun-23 22:54N 51°04' E 002°14'4 7.6
2017-Jun-23 22:19N 51°04' E 002°21'1 1.4
2017-Jun-23 21:52N 51°03' E 002°20'0 1.0
2017-Jun-23 21:29N 51°03' E 002°20'2 4.3
2017-Jun-23 20:58N 51°03' E 002°16'0 0.0
2017-Jun-23 20:30N 51°03' E 002°16'0 0.0
2017-Jun-23 20:00N 51°03' E 002°16'0 0.0
2017-Jun-23 19:28N 51°03' E 002°16'0 0.0
2017-Jun-23 18:52N 51°03' E 002°16'0 0.0
2017-Jun-23 18:27N 51°03' E 002°16'0 0.0
2017-Jun-23 17:59N 51°03' E 002°16'0 0.0
2017-Jun-23 17:30N 51°03' E 002°16'0 0.0
2017-Jun-23 16:57N 51°03' E 002°16'0 0.0
2017-Jun-23 16:27N 51°03' E 002°16'0 0.0
2017-Jun-23 16:00N 51°03' E 002°16'0 0.0
2017-Jun-23 15:29N 51°03' E 002°16'0 0.0
2017-Jun-23 14:58N 51°03' E 002°16'0 0.0
2017-Jun-23 13:59N 51°03' E 002°16'0 0.0
2017-Jun-23 13:30N 51°03' E 002°16'0 0.0
2017-Jun-23 12:59N 51°03' E 002°16'0 0.0
2017-Jun-23 12:30N 51°03' E 002°16'0 0.0
2017-Jun-23 12:00N 51°03' E 002°16'0 0.0
2017-Jun-23 11:29N 51°03' E 002°16'0 0.0
2017-Jun-23 10:59N 51°03' E 002°16'0 0.0
2017-Jun-23 10:28N 51°03' E 002°16'0 0.0
2017-Jun-23 09:57N 51°03' E 002°16'0 0.0
2017-Jun-23 09:29N 51°03' E 002°16'0 0.0
2017-Jun-23 08:59N 51°03' E 002°16'0 0.0
2017-Jun-23 08:28N 51°03' E 002°16'0 0.0
2017-Jun-23 07:55N 51°03' E 002°16'0 0.0
2017-Jun-23 07:30N 51°03' E 002°16'0 0.0
2017-Jun-23 06:57N 51°03' E 002°16'0 0.0
2017-Jun-23 06:25N 51°03' E 002°16'0 0.0
2017-Jun-23 06:00N 51°03' E 002°16'0 0.0
2017-Jun-23 05:30N 51°03' E 002°16'0 0.0
2017-Jun-23 04:57N 51°03' E 002°16'0 0.0
2017-Jun-23 04:30N 51°03' E 002°16'0 0.0
2017-Jun-23 03:58N 51°03' E 002°16'0 0.0
2017-Jun-23 03:27N 51°03' E 002°16'0 0.0
2017-Jun-23 02:58N 51°03' E 002°16'0 0.0
2017-Jun-23 02:30N 51°03' E 002°16'0 0.0
2017-Jun-23 02:00N 51°03' E 002°16'0 0.0
2017-Jun-23 01:29N 51°03' E 002°16'0 0.0
2017-Jun-23 00:59N 51°03' E 002°16'0 0.0
2017-Jun-23 00:29N 51°03' E 002°16'0 0.0
2017-Jun-22 23:59N 51°03' E 002°16'0 0.0
2017-Jun-22 23:28N 51°03' E 002°16'0 0.0
2017-Jun-22 22:58N 51°03' E 002°16'0 0.0
2017-Jun-22 22:29N 51°03' E 002°16'0 0.0
2017-Jun-22 22:00N 51°03' E 002°16'0 0.0
2017-Jun-22 21:28N 51°03' E 002°16'0 0.0
2017-Jun-22 21:00N 51°03' E 002°16'0 0.0
2017-Jun-22 20:23N 51°03' E 002°16'0 0.0
2017-Jun-22 20:00N 51°03' E 002°16'0 0.0
2017-Jun-22 19:30N 51°03' E 002°16'0 0.0
2017-Jun-22 18:59N 51°03' E 002°16'0 0.0
2017-Jun-22 18:30N 51°03' E 002°16'0 0.0
2017-Jun-22 17:59N 51°03' E 002°16'0 0.0
2017-Jun-22 17:29N 51°03' E 002°16'0 0.0
2017-Jun-22 16:58N 51°03' E 002°16'0 0.0
2017-Jun-22 16:28N 51°03' E 002°16'0 0.1
2017-Jun-22 15:56N 51°03' E 002°16'0 0.0
2017-Jun-22 15:30N 51°03' E 002°16'0 0.0
2017-Jun-22 14:58N 51°03' E 002°16'0 0.0
2017-Jun-22 13:55N 51°03' E 002°16'0 0.0
2017-Jun-22 13:25N 51°03' E 002°16'0 0.0
2017-Jun-22 12:59N 51°03' E 002°16'0 0.0
2017-Jun-22 12:29N 51°03' E 002°16'0 0.0
2017-Jun-22 11:59N 51°03' E 002°16'0 0.0
2017-Jun-22 11:28N 51°03' E 002°16'0 0.0
2017-Jun-22 10:59N 51°03' E 002°16'0 0.0
2017-Jun-22 10:29N 51°03' E 002°16'0 0.0
2017-Jun-22 09:57N 51°03' E 002°16'0 0.0
2017-Jun-22 09:27N 51°03' E 002°16'0 0.0
2017-Jun-22 08:48N 51°03' E 002°16'0 0.0
2017-Jun-22 08:21N 51°03' E 002°16'0 0.0
2017-Jun-22 07:54N 51°03' E 002°16'0 0.0
2017-Jun-22 07:30N 51°03' E 002°16'0 0.0
2017-Jun-22 06:27N 51°03' E 002°16'0 0.0
2017-Jun-22 05:53N 51°03' E 002°16'0 0.0
2017-Jun-22 05:27N 51°03' E 002°16'0 0.0
2017-Jun-22 04:47N 51°03' E 002°16'0 0.0
2017-Jun-22 04:26N 51°03' E 002°16'0 0.0
2017-Jun-22 04:00N 51°03' E 002°16'0 0.0
2017-Jun-22 03:14N 51°03' E 002°16'0 0.0
2017-Jun-22 03:00N 51°03' E 002°16'0 0.0
2017-Jun-22 02:28N 51°03' E 002°16'0 0.0
2017-Jun-22 01:55N 51°03' E 002°16'0 0.0
2017-Jun-22 01:30N 51°03' E 002°16'0 0.0
2017-Jun-22 00:58N 51°03' E 002°16'0 0.0
2017-Jun-22 00:29N 51°03' E 002°16'0 0.0
2017-Jun-22 00:00N 51°03' E 002°16'0 0.0
2017-Jun-21 23:30N 51°03' E 002°16'0 0.0
2017-Jun-21 23:00N 51°03' E 002°16'0 0.0
2017-Jun-21 22:27N 51°03' E 002°16'0 0.0
2017-Jun-21 21:59N 51°03' E 002°16'0 0.0
2017-Jun-21 21:29N 51°03' E 002°16'0 0.0
2017-Jun-21 21:00N 51°03' E 002°16'0 0.0
2017-Jun-21 20:22N 51°03' E 002°16'0 0.0
2017-Jun-21 19:59N 51°03' E 002°16'0 0.0
2017-Jun-21 19:28N 51°03' E 002°16'0 0.0
2017-Jun-21 18:58N 51°03' E 002°16'0 0.0
2017-Jun-21 18:29N 51°03' E 002°16'0 0.0
2017-Jun-21 17:59N 51°03' E 002°16'0 0.0
2017-Jun-21 17:30N 51°03' E 002°16'0 0.0
2017-Jun-21 17:00N 51°03' E 002°16'0 0.0
2017-Jun-21 16:26N 51°03' E 002°16'0 0.0
2017-Jun-21 15:47N 51°03' E 002°16'0 0.0
2017-Jun-21 15:26N 51°03' E 002°16'0 0.0
2017-Jun-21 14:58N 51°03' E 002°16'0 0.0
2017-Jun-21 14:28N 51°03' E 002°16'0 0.0
2017-Jun-21 13:30N 51°03' E 002°16'0 0.0
2017-Jun-21 12:59N 51°03' E 002°16'0 0.6
2017-Jun-21 12:28N 51°03' E 002°17'2 4.8
2017-Jun-21 12:00N 51°03' E 002°20'0 0.5
2017-Jun-21 11:25N 51°03' E 002°21'2 4.1
2017-Jun-21 10:59N 51°04' E 002°18'510.6
2017-Jun-21 10:30N 51°03' E 002°10'510.5
2017-Jun-21 10:00N 51°02' E 002°02'611.5
2017-Jun-21 09:30N 51°02' E 001°53'510.6
2017-Jun-21 09:00N 51°03' E 001°44'4 8.6
2017-Jun-21 08:30N 51°06' E 001°40'3 5.6
2017-Jun-21 08:00N 51°09' E 001°41'4 8.4
2017-Jun-21 07:30N 51°12' E 001°45'5 9.2
2017-Jun-21 07:00N 51°16' E 001°50'510.2
2017-Jun-21 06:30N 51°20' E 001°54'611.0
2017-Jun-21 06:00N 51°25' E 001°58'94 9.1
2017-Jun-20 19:41N 52°31' E 003°45'4 9.7
2017-Jun-20 19:17N 52°31' E 003°52'3 9.6
2017-Jun-20 18:59N 52°31' E 003°56'5 9.8
2017-Jun-20 18:30N 52°31' E 004°04'5 9.9
2017-Jun-20 18:00N 52°31' E 004°12'5 9.6
2017-Jun-20 17:30N 52°30' E 004°20'5 9.5
2017-Jun-20 17:00N 52°29' E 004°27'5 9.1
2017-Jun-20 16:30N 52°28' E 004°35'1 2.2
2017-Jun-20 16:00N 52°28' E 004°37'2 4.0
2017-Jun-20 15:30N 52°28' E 004°40'0 0.7
2017-Jun-20 15:00N 52°28' E 004°40'0 0.0
2017-Jun-20 14:00N 52°28' E 004°40'0 0.0
2017-Jun-20 13:24N 52°28' E 004°40'0 0.0
2017-Jun-20 12:57N 52°28' E 004°40'0 0.0
2017-Jun-20 12:16N 52°28' E 004°40'0 0.0
2017-Jun-20 11:58N 52°28' E 004°40'0 0.0
2017-Jun-20 11:24N 52°28' E 004°40'0 0.0
2017-Jun-20 10:53N 52°28' E 004°40'0 0.0
2017-Jun-20 10:26N 52°28' E 004°40'0 0.0
2017-Jun-20 09:54N 52°28' E 004°40'0 0.0
2017-Jun-20 08:51N 52°28' E 004°40'0 0.0
2017-Jun-20 07:29N 52°28' E 004°40'0 0.0
2017-Jun-20 06:58N 52°28' E 004°40'0 0.1
2017-Jun-20 06:26N 52°28' E 004°40'0 0.0
2017-Jun-20 05:52N 52°28' E 004°40'0 0.0
2017-Jun-20 05:29N 52°28' E 004°40'0 0.0
2017-Jun-20 04:56N 52°28' E 004°40'0 0.0
2017-Jun-20 04:26N 52°28' E 004°40'0 0.0
2017-Jun-20 03:59N 52°28' E 004°40'0 0.0
2017-Jun-20 03:30N 52°28' E 004°40'0 0.0
2017-Jun-20 02:58N 52°28' E 004°40'0 0.0
2017-Jun-20 02:27N 52°28' E 004°40'0 0.0
2017-Jun-20 01:59N 52°28' E 004°40'0 0.0
2017-Jun-20 01:30N 52°28' E 004°40'0 0.0
2017-Jun-20 00:50N 52°28' E 004°40'0 0.0
2017-Jun-20 00:23N 52°28' E 004°40'0 0.0
2017-Jun-20 00:00N 52°28' E 004°40'0 0.0
2017-Jun-19 23:30N 52°28' E 004°40'0 0.0
2017-Jun-19 22:56N 52°28' E 004°40'0 0.0
2017-Jun-19 22:10N 52°28' E 004°40'0 0.0
2017-Jun-19 21:54N 52°28' E 004°40'0 0.0
2017-Jun-19 21:28N 52°28' E 004°40'0 0.0
2017-Jun-19 20:58N 52°28' E 004°40'0 0.0
2017-Jun-19 20:25N 52°28' E 004°40'0 0.0
2017-Jun-19 19:46N 52°28' E 004°40'0 0.0
2017-Jun-19 19:24N 52°28' E 004°40'0 0.0
2017-Jun-19 18:50N 52°28' E 004°40'0 0.0
2017-Jun-19 18:30N 52°28' E 004°40'0 0.0
2017-Jun-19 18:00N 52°28' E 004°40'0 0.0
2017-Jun-19 17:29N 52°28' E 004°40'0 0.0
2017-Jun-19 16:58N 52°28' E 004°40'0 0.0
2017-Jun-19 16:23N 52°28' E 004°40'0 0.0
2017-Jun-19 15:47N 52°28' E 004°40'0 0.0
2017-Jun-19 15:17N 52°28' E 004°40'0 0.0
2017-Jun-19 14:59N 52°28' E 004°40'0 0.0
2017-Jun-19 14:29N 52°28' E 004°40'0 0.0
2017-Jun-19 13:24N 52°28' E 004°40'0 0.0
2017-Jun-19 13:01N 52°28' E 004°40'0 0.0
2017-Jun-19 12:29N 52°28' E 004°40'0 0.0
2017-Jun-19 11:47N 52°28' E 004°40'0 0.0
2017-Jun-19 11:31N 52°28' E 004°40'0 0.0
2017-Jun-19 10:54N 52°28' E 004°40'0 0.0
2017-Jun-19 10:28N 52°28' E 004°40'0 0.0
2017-Jun-19 09:59N 52°28' E 004°40'0 0.0
2017-Jun-19 09:24N 52°28' E 004°40'0 0.0
2017-Jun-19 08:59N 52°28' E 004°40'0 0.0
2017-Jun-19 08:30N 52°28' E 004°40'0 0.0
2017-Jun-19 07:56N 52°28' E 004°40'0 0.0
2017-Jun-19 07:27N 52°28' E 004°40'0 0.0
2017-Jun-19 06:53N 52°28' E 004°40'0 0.0
2017-Jun-19 06:30N 52°28' E 004°40'0 0.0
2017-Jun-19 05:59N 52°28' E 004°40'0 0.0
2017-Jun-19 05:26N 52°28' E 004°40'0 0.0
2017-Jun-19 04:58N 52°28' E 004°40'0 0.0
2017-Jun-19 04:31N 52°28' E 004°40'0 0.0
2017-Jun-19 04:00N 52°28' E 004°40'1 1.5
2017-Jun-19 03:30N 52°28' E 004°39'2 3.7
2017-Jun-19 03:00N 52°28' E 004°36'1 2.7
2017-Jun-19 02:30N 52°28' E 004°34'5 9.6
2017-Jun-19 02:00N 52°28' E 004°26'3 6.9
2017-Jun-19 01:30N 52°25' E 004°22'3 5.8
2017-Jun-19 01:00N 52°22' E 004°21'2 3.1
2017-Jun-19 00:30N 52°22' E 004°18'3 5.3
2017-Jun-19 00:00N 52°25' E 004°16'2 4.9
2017-Jun-18 23:30N 52°27' E 004°14'3 4.9
2017-Jun-18 22:49N 52°29' E 004°10'5 6.1
2017-Jun-18 22:04N 52°28' E 004°03'1 6.2
2017-Jun-18 21:52N 52°27' E 004°01'2 6.3
2017-Jun-18 21:30N 52°27' E 003°57'12 6.8
2017-Jun-18 19:43N 52°15' E 003°53'2 8.2
2017-Jun-18 19:28N 52°13' E 003°54'4 8.1
2017-Jun-18 19:00N 52°09' E 003°55'4 7.7
2017-Jun-18 18:30N 52°05' E 003°56'3 6.1
2017-Jun-18 18:00N 52°03' E 003°54'4 8.4
2017-Jun-18 17:31N 52°01' E 004°00'611.9
2017-Jun-18 17:01N 51°58' E 004°09'611.9
2017-Jun-18 16:30N 51°54' E 004°16'3 6.2
2017-Jun-18 16:00N 51°54' E 004°21'0 0.0
2017-Jun-18 15:30N 51°54' E 004°21'0 0.0
2017-Jun-18 15:00N 51°54' E 004°21'0 0.0
2017-Jun-18 14:00N 51°54' E 004°21'0 0.0
2017-Jun-18 13:30N 51°54' E 004°21'0 0.0
2017-Jun-18 13:00N 51°54' E 004°21'0 0.0
2017-Jun-18 12:29N 51°54' E 004°21'0 0.0
2017-Jun-18 12:00N 51°54' E 004°21'0 0.0
2017-Jun-18 11:29N 51°54' E 004°21'0 0.0
2017-Jun-18 11:00N 51°54' E 004°21'0 0.0
2017-Jun-18 10:22N 51°54' E 004°21'0 0.0
2017-Jun-18 10:00N 51°54' E 004°21'0 0.0
2017-Jun-18 09:30N 51°54' E 004°21'0 0.0
2017-Jun-18 09:00N 51°54' E 004°21'0 0.0
2017-Jun-18 08:30N 51°54' E 004°21'0 0.0
2017-Jun-18 08:00N 51°54' E 004°21'0 0.0
2017-Jun-18 07:29N 51°54' E 004°21'0 0.0
2017-Jun-18 07:00N 51°54' E 004°21'0 0.0
2017-Jun-18 06:30N 51°54' E 004°21'0 0.0
2017-Jun-18 06:00N 51°54' E 004°21'0 0.0
2017-Jun-18 05:30N 51°54' E 004°21'0 0.0
2017-Jun-18 05:00N 51°54' E 004°21'0 0.0
2017-Jun-18 04:30N 51°54' E 004°21'0 0.0
2017-Jun-18 03:55N 51°54' E 004°21'0 0.0
2017-Jun-18 03:30N 51°54' E 004°21'0 0.0
2017-Jun-18 03:00N 51°54' E 004°21'0 0.0
2017-Jun-18 02:30N 51°54' E 004°21'0 0.0
2017-Jun-18 02:00N 51°54' E 004°21'0 0.0
2017-Jun-18 01:23N 51°54' E 004°21'0 0.0
2017-Jun-18 01:00N 51°54' E 004°21'0 0.0
2017-Jun-18 00:30N 51°54' E 004°21'0 0.0
2017-Jun-18 00:00N 51°54' E 004°21'0 0.0
2017-Jun-17 23:30N 51°54' E 004°21'0 0.0
2017-Jun-17 23:00N 51°54' E 004°21'0 0.0
2017-Jun-17 22:30N 51°54' E 004°21'0 0.0
2017-Jun-17 22:00N 51°54' E 004°21'0 0.0
2017-Jun-17 21:30N 51°54' E 004°21'0 0.0
2017-Jun-17 21:00N 51°54' E 004°21'0 0.0
2017-Jun-17 20:30N 51°54' E 004°21'0 0.0
2017-Jun-17 20:00N 51°54' E 004°21'0 0.0
2017-Jun-17 19:30N 51°54' E 004°21'0 0.0
2017-Jun-17 19:00N 51°54' E 004°21'0 0.0
2017-Jun-17 18:30N 51°54' E 004°21'0 0.0
2017-Jun-17 18:00N 51°54' E 004°21'0 0.0
2017-Jun-17 17:25N 51°54' E 004°21'0 0.0
2017-Jun-17 17:00N 51°54' E 004°21'0 0.0
2017-Jun-17 16:30N 51°54' E 004°21'0 0.0
2017-Jun-17 15:59N 51°54' E 004°21'0 0.0
2017-Jun-17 15:30N 51°54' E 004°21'0 0.0
2017-Jun-17 15:00N 51°54' E 004°21'0 0.0
2017-Jun-17 14:00N 51°54' E 004°21'0 0.0
2017-Jun-17 13:30N 51°54' E 004°21'0 0.0
2017-Jun-17 13:00N 51°54' E 004°21'0 0.0
2017-Jun-17 12:30N 51°54' E 004°21'0 0.0
2017-Jun-17 12:00N 51°54' E 004°21'0 0.0
2017-Jun-17 11:30N 51°54' E 004°21'0 0.0
2017-Jun-17 11:00N 51°54' E 004°21'0 0.0
2017-Jun-17 10:30N 51°54' E 004°21'0 0.0
2017-Jun-17 10:00N 51°54' E 004°21'0 0.0
2017-Jun-17 09:30N 51°54' E 004°21'0 0.0
2017-Jun-17 09:00N 51°54' E 004°21'0 0.0
2017-Jun-17 08:30N 51°54' E 004°21'0 0.0
2017-Jun-17 08:00N 51°54' E 004°21'0 0.0
2017-Jun-17 07:30N 51°54' E 004°21'0 0.0
2017-Jun-17 07:00N 51°54' E 004°21'0 0.0
2017-Jun-17 06:30N 51°54' E 004°21'0 0.0
2017-Jun-17 06:00N 51°54' E 004°21'0 0.0
2017-Jun-17 05:30N 51°54' E 004°21'0 0.0
2017-Jun-17 05:00N 51°54' E 004°21'0 0.0
2017-Jun-17 04:30N 51°54' E 004°21'0 0.0
2017-Jun-17 04:00N 51°54' E 004°21'0 0.0
2017-Jun-17 03:30N 51°54' E 004°21'0 0.0
2017-Jun-17 03:00N 51°54' E 004°21'0 0.0
2017-Jun-17 02:30N 51°54' E 004°21'0 0.0
2017-Jun-17 02:00N 51°54' E 004°21'0 0.0
2017-Jun-17 01:30N 51°54' E 004°21'0 0.0
2017-Jun-17 01:00N 51°54' E 004°21'0 0.0
2017-Jun-17 00:30N 51°54' E 004°21'0 0.0
2017-Jun-17 00:00N 51°54' E 004°21'0 0.0
2017-Jun-16 23:30N 51°54' E 004°21'0 0.0
2017-Jun-16 23:00N 51°54' E 004°21'0 0.0
2017-Jun-16 22:30N 51°54' E 004°21'0 0.0
2017-Jun-16 22:00N 51°54' E 004°21'0 0.0
2017-Jun-16 21:30N 51°54' E 004°21'0 0.0
2017-Jun-16 21:00N 51°54' E 004°21'0 0.0
2017-Jun-16 20:30N 51°54' E 004°21'0 0.0
2017-Jun-16 20:00N 51°54' E 004°21'0 0.0
2017-Jun-16 19:30N 51°54' E 004°21'0 0.0
2017-Jun-16 19:00N 51°54' E 004°21'0 0.0
2017-Jun-16 18:30N 51°54' E 004°21'0 0.0
2017-Jun-16 18:00N 51°54' E 004°21'0 0.0
2017-Jun-16 17:30N 51°54' E 004°21'0 0.0
2017-Jun-16 17:00N 51°54' E 004°21'0 0.0
2017-Jun-16 16:30N 51°54' E 004°21'0 0.0
2017-Jun-16 16:00N 51°54' E 004°21'0 0.0
2017-Jun-16 15:30N 51°54' E 004°21'0 0.0
2017-Jun-16 15:00N 51°54' E 004°21'0 0.0
2017-Jun-16 14:30N 51°54' E 004°21'0 0.0
2017-Jun-16 13:30N 51°54' E 004°21'0 0.0
2017-Jun-16 13:00N 51°54' E 004°21'0 0.0
2017-Jun-16 12:30N 51°54' E 004°21'0 0.0
2017-Jun-16 12:00N 51°54' E 004°21'0 0.0
2017-Jun-16 11:30N 51°54' E 004°21'0 0.0
2017-Jun-16 11:00N 51°54' E 004°21'0 0.0
2017-Jun-16 10:30N 51°54' E 004°21'0 0.0
2017-Jun-16 10:00N 51°54' E 004°21'0 0.0
2017-Jun-16 09:30N 51°54' E 004°21'0 0.0
2017-Jun-16 09:00N 51°54' E 004°21'0 0.0
2017-Jun-16 08:30N 51°54' E 004°21'1 3.0
2017-Jun-16 08:00N 51°54' E 004°19'510.1
2017-Jun-16 07:31N 51°56' E 004°12'510.6
2017-Jun-16 07:00N 51°59' E 004°05'510.7
2017-Jun-16 06:30N 51°60' E 003°56'5 9.2
2017-Jun-16 06:00N 52°00' E 003°49'64 8.4
2017-Jun-15 22:25N 51°52' E 002°06'4 8.8
2017-Jun-15 22:00N 51°50' E 002°01'5 9.2
2017-Jun-15 21:30N 51°48' E 001°54'5 9.1
2017-Jun-15 21:00N 51°49' E 001°46'510.0
2017-Jun-15 20:30N 51°50' E 001°39'4 8.0
2017-Jun-15 20:00N 51°53' E 001°34'4 8.3
2017-Jun-15 19:30N 51°56' E 001°29'510.1
2017-Jun-15 19:00N 51°56' E 001°21'4 8.3
2017-Jun-15 18:30N 51°59' E 001°17'4 7.7
2017-Jun-15 18:00N 52°01' E 001°11'2 4.1
2017-Jun-15 17:30N 52°02' E 001°09'0 0.2
2017-Jun-15 17:00N 52°02' E 001°09'0 0.0
2017-Jun-15 16:29N 52°02' E 001°09'0 0.0
2017-Jun-15 15:56N 52°02' E 001°09'0 0.0
2017-Jun-15 15:29N 52°02' E 001°09'0 0.0
2017-Jun-15 14:59N 52°02' E 001°09'0 0.0
2017-Jun-15 13:59N 52°02' E 001°09'0 0.0
2017-Jun-15 13:29N 52°02' E 001°09'0 0.0
2017-Jun-15 12:59N 52°02' E 001°09'0 0.0
2017-Jun-15 12:29N 52°02' E 001°09'0 0.0
2017-Jun-15 11:59N 52°02' E 001°09'0 0.0
2017-Jun-15 11:29N 52°02' E 001°09'0 0.0
2017-Jun-15 10:59N 52°02' E 001°09'0 0.0
2017-Jun-15 10:29N 52°02' E 001°09'0 0.0
2017-Jun-15 09:59N 52°02' E 001°09'0 0.0
2017-Jun-15 09:29N 52°02' E 001°09'0 0.0
2017-Jun-15 08:59N 52°02' E 001°09'0 0.0
2017-Jun-15 08:29N 52°02' E 001°09'0 0.0
2017-Jun-15 07:59N 52°02' E 001°09'0 0.0
2017-Jun-15 07:29N 52°02' E 001°09'0 0.0
2017-Jun-15 06:59N 52°02' E 001°09'0 0.0
2017-Jun-15 06:29N 52°02' E 001°09'0 0.0
2017-Jun-15 05:59N 52°02' E 001°09'0 0.0
2017-Jun-15 05:29N 52°02' E 001°09'0 0.0
2017-Jun-15 04:59N 52°02' E 001°09'0 0.0
2017-Jun-15 04:29N 52°02' E 001°09'0 0.0
2017-Jun-15 03:59N 52°02' E 001°09'0 0.0
2017-Jun-15 03:29N 52°02' E 001°09'0 0.0
2017-Jun-15 02:59N 52°02' E 001°09'0 0.0
2017-Jun-15 02:29N 52°02' E 001°09'0 0.0
2017-Jun-15 01:59N 52°02' E 001°09'0 0.0
2017-Jun-15 01:29N 52°02' E 001°09'0 0.0
2017-Jun-15 00:59N 52°02' E 001°09'0 0.0
2017-Jun-15 00:29N 52°02' E 001°09'0 0.0
2017-Jun-14 23:59N 52°02' E 001°09'0 0.0
2017-Jun-14 23:29N 52°02' E 001°09'0 0.0
2017-Jun-14 22:59N 52°02' E 001°09'0 0.0
2017-Jun-14 22:29N 52°02' E 001°09'0 0.0
2017-Jun-14 21:59N 52°02' E 001°09'0 0.0
2017-Jun-14 21:29N 52°02' E 001°09'0 0.0
2017-Jun-14 20:59N 52°02' E 001°09'0 0.0
2017-Jun-14 20:29N 52°02' E 001°09'0 0.0
2017-Jun-14 19:59N 52°02' E 001°09'0 0.0
2017-Jun-14 19:29N 52°02' E 001°09'0 0.0
2017-Jun-14 18:59N 52°02' E 001°09'0 0.0
2017-Jun-14 18:29N 52°02' E 001°09'0 0.0
2017-Jun-14 17:59N 52°02' E 001°09'0 0.0
2017-Jun-14 17:29N 52°02' E 001°09'0 0.0
2017-Jun-14 16:59N 52°02' E 001°09'0 0.0
2017-Jun-14 16:30N 52°02' E 001°09'0 0.0
2017-Jun-14 16:00N 52°02' E 001°09'0 0.0
2017-Jun-14 15:30N 52°02' E 001°09'0 0.0
2017-Jun-14 14:58N 52°02' E 001°09'0 0.0
2017-Jun-14 13:58N 52°02' E 001°09'0 0.0
2017-Jun-14 13:30N 52°02' E 001°09'0 0.0
2017-Jun-14 13:00N 52°02' E 001°09'0 0.0
2017-Jun-14 12:30N 52°02' E 001°09'0 0.0
2017-Jun-14 12:00N 52°02' E 001°09'0 0.0
2017-Jun-14 11:30N 52°02' E 001°09'0 0.0
2017-Jun-14 11:00N 52°02' E 001°09'0 0.0
2017-Jun-14 10:30N 52°02' E 001°09'0 0.0
2017-Jun-14 10:00N 52°02' E 001°09'0 0.0
2017-Jun-14 09:30N 52°02' E 001°09'0 0.0
2017-Jun-14 09:00N 52°02' E 001°09'0 0.0
2017-Jun-14 08:30N 52°02' E 001°09'0 0.0
2017-Jun-14 07:57N 52°02' E 001°09'0 0.0
2017-Jun-14 07:30N 52°02' E 001°09'0 0.0
2017-Jun-14 07:00N 52°02' E 001°09'0 0.0
2017-Jun-14 06:30N 52°02' E 001°09'0 0.0
2017-Jun-14 06:00N 52°02' E 001°09'0 0.0
2017-Jun-14 05:30N 52°02' E 001°09'0 0.0
2017-Jun-14 05:00N 52°02' E 001°09'2 4.6
2017-Jun-14 04:30N 52°00' E 001°12'4 7.3
2017-Jun-14 04:00N 51°58' E 001°17'4 7.7
2017-Jun-14 03:30N 51°56' E 001°21'5 9.4
2017-Jun-14 03:01N 51°57' E 001°28'3 6.7
2017-Jun-14 02:30N 51°57' E 001°34'2 3.0
2017-Jun-14 02:00N 51°58' E 001°36'3 5.4
2017-Jun-14 01:30N 51°56' E 001°34'  
Track history (hours):
 
Tides and Currents Weather Stations Pressure Air Temp Water Temp Dewpoint Dewpoint Depression Visibility Wind Speed Wind Dir Waves Ship Positions

Marcel

Last reported at 2017-Jun-24 01:26 UTC. Time now 2017-Jun-24 01:50 UTC.
Position N 51°04' E 001°46'.

Length 88 m; draft 4 m.

Type: Cargo ship. MMSI: 205439000.

Date/timePositionNaut miles runAvg speedWind from/ knotsBaromVisibWave heightAir tempDewpointWater temp
2017-Jun-24 01:26N 51°04' E 001°46'4 7.6
2017-Jun-24 00:51N 51°02' E 001°52'3 7.3
2017-Jun-24 00:25N 51°02' E 001°57'3 6.9
2017-Jun-24 00:00N 51°03' E 002°01'4 7.2
2017-Jun-23 23:29N 51°03' E 002°07'4 7.5
2017-Jun-23 22:54N 51°04' E 002°14'4 7.6
2017-Jun-23 22:19N 51°04' E 002°21'1 1.4
2017-Jun-23 21:52N 51°03' E 002°20'0 1.0
2017-Jun-23 21:29N 51°03' E 002°20'2 4.3
2017-Jun-23 20:58N 51°03' E 002°16'0 0.0
2017-Jun-23 20:30N 51°03' E 002°16'0 0.0
2017-Jun-23 20:00N 51°03' E 002°16'0 0.0
2017-Jun-23 19:28N 51°03' E 002°16'0 0.0
2017-Jun-23 18:52N 51°03' E 002°16'0 0.0
2017-Jun-23 18:27N 51°03' E 002°16'0 0.0
2017-Jun-23 17:59N 51°03' E 002°16'0 0.0
2017-Jun-23 17:30N 51°03' E 002°16'0 0.0
2017-Jun-23 16:57N 51°03' E 002°16'0 0.0
2017-Jun-23 16:27N 51°03' E 002°16'0 0.0
2017-Jun-23 16:00N 51°03' E 002°16'0 0.0
2017-Jun-23 15:29N 51°03' E 002°16'0 0.0
2017-Jun-23 14:58N 51°03' E 002°16'0 0.0
2017-Jun-23 13:59N 51°03' E 002°16'0 0.0
2017-Jun-23 13:30N 51°03' E 002°16'0 0.0
2017-Jun-23 12:59N 51°03' E 002°16'0 0.0
2017-Jun-23 12:30N 51°03' E 002°16'0 0.0
2017-Jun-23 12:00N 51°03' E 002°16'0 0.0
2017-Jun-23 11:29N 51°03' E 002°16'0 0.0
2017-Jun-23 10:59N 51°03' E 002°16'0 0.0
2017-Jun-23 10:28N 51°03' E 002°16'0 0.0
2017-Jun-23 09:57N 51°03' E 002°16'0 0.0
2017-Jun-23 09:29N 51°03' E 002°16'0 0.0
2017-Jun-23 08:59N 51°03' E 002°16'0 0.0
2017-Jun-23 08:28N 51°03' E 002°16'0 0.0
2017-Jun-23 07:55N 51°03' E 002°16'0 0.0
2017-Jun-23 07:30N 51°03' E 002°16'0 0.0
2017-Jun-23 06:57N 51°03' E 002°16'0 0.0
2017-Jun-23 06:25N 51°03' E 002°16'0 0.0
2017-Jun-23 06:00N 51°03' E 002°16'0 0.0
2017-Jun-23 05:30N 51°03' E 002°16'0 0.0
2017-Jun-23 04:57N 51°03' E 002°16'0 0.0
2017-Jun-23 04:30N 51°03' E 002°16'0 0.0
2017-Jun-23 03:58N 51°03' E 002°16'0 0.0
2017-Jun-23 03:27N 51°03' E 002°16'0 0.0
2017-Jun-23 02:58N 51°03' E 002°16'0 0.0
2017-Jun-23 02:30N 51°03' E 002°16'0 0.0
2017-Jun-23 02:00N 51°03' E 002°16'0 0.0
2017-Jun-23 01:29N 51°03' E 002°16'0 0.0
2017-Jun-23 00:59N 51°03' E 002°16'0 0.0
2017-Jun-23 00:29N 51°03' E 002°16'0 0.0
2017-Jun-22 23:59N 51°03' E 002°16'0 0.0
2017-Jun-22 23:28N 51°03' E 002°16'0 0.0
2017-Jun-22 22:58N 51°03' E 002°16'0 0.0
2017-Jun-22 22:29N 51°03' E 002°16'0 0.0
2017-Jun-22 22:00N 51°03' E 002°16'0 0.0
2017-Jun-22 21:28N 51°03' E 002°16'0 0.0
2017-Jun-22 21:00N 51°03' E 002°16'0 0.0
2017-Jun-22 20:23N 51°03' E 002°16'0 0.0
2017-Jun-22 20:00N 51°03' E 002°16'0 0.0
2017-Jun-22 19:30N 51°03' E 002°16'0 0.0
2017-Jun-22 18:59N 51°03' E 002°16'0 0.0
2017-Jun-22 18:30N 51°03' E 002°16'0 0.0
2017-Jun-22 17:59N 51°03' E 002°16'0 0.0
2017-Jun-22 17:29N 51°03' E 002°16'0 0.0
2017-Jun-22 16:58N 51°03' E 002°16'0 0.0
2017-Jun-22 16:28N 51°03' E 002°16'0 0.1
2017-Jun-22 15:56N 51°03' E 002°16'0 0.0
2017-Jun-22 15:30N 51°03' E 002°16'0 0.0
2017-Jun-22 14:58N 51°03' E 002°16'0 0.0
2017-Jun-22 13:55N 51°03' E 002°16'0 0.0
2017-Jun-22 13:25N 51°03' E 002°16'0 0.0
2017-Jun-22 12:59N 51°03' E 002°16'0 0.0
2017-Jun-22 12:29N 51°03' E 002°16'0 0.0
2017-Jun-22 11:59N 51°03' E 002°16'0 0.0
2017-Jun-22 11:28N 51°03' E 002°16'0 0.0
2017-Jun-22 10:59N 51°03' E 002°16'0 0.0
2017-Jun-22 10:29N 51°03' E 002°16'0 0.0
2017-Jun-22 09:57N 51°03' E 002°16'0 0.0
2017-Jun-22 09:27N 51°03' E 002°16'0 0.0
2017-Jun-22 08:48N 51°03' E 002°16'0 0.0
2017-Jun-22 08:21N 51°03' E 002°16'0 0.0
2017-Jun-22 07:54N 51°03' E 002°16'0 0.0
2017-Jun-22 07:30N 51°03' E 002°16'0 0.0
2017-Jun-22 06:27N 51°03' E 002°16'0 0.0
2017-Jun-22 05:53N 51°03' E 002°16'0 0.0
2017-Jun-22 05:27N 51°03' E 002°16'0 0.0
2017-Jun-22 04:47N 51°03' E 002°16'0 0.0
2017-Jun-22 04:26N 51°03' E 002°16'0 0.0
2017-Jun-22 04:00N 51°03' E 002°16'0 0.0
2017-Jun-22 03:14N 51°03' E 002°16'0 0.0
2017-Jun-22 03:00N 51°03' E 002°16'0 0.0
2017-Jun-22 02:28N 51°03' E 002°16'0 0.0
2017-Jun-22 01:55N 51°03' E 002°16'0 0.0
2017-Jun-22 01:30N 51°03' E 002°16'0 0.0
2017-Jun-22 00:58N 51°03' E 002°16'0 0.0
2017-Jun-22 00:29N 51°03' E 002°16'0 0.0
2017-Jun-22 00:00N 51°03' E 002°16'0 0.0
2017-Jun-21 23:30N 51°03' E 002°16'0 0.0
2017-Jun-21 23:00N 51°03' E 002°16'0 0.0
2017-Jun-21 22:27N 51°03' E 002°16'0 0.0
2017-Jun-21 21:59N 51°03' E 002°16'0 0.0
2017-Jun-21 21:29N 51°03' E 002°16'0 0.0
2017-Jun-21 21:00N 51°03' E 002°16'0 0.0
2017-Jun-21 20:22N 51°03' E 002°16'0 0.0
2017-Jun-21 19:59N 51°03' E 002°16'0 0.0
2017-Jun-21 19:28N 51°03' E 002°16'0 0.0
2017-Jun-21 18:58N 51°03' E 002°16'0 0.0
2017-Jun-21 18:29N 51°03' E 002°16'0 0.0
2017-Jun-21 17:59N 51°03' E 002°16'0 0.0
2017-Jun-21 17:30N 51°03' E 002°16'0 0.0
2017-Jun-21 17:00N 51°03' E 002°16'0 0.0
2017-Jun-21 16:26N 51°03' E 002°16'0 0.0
2017-Jun-21 15:47N 51°03' E 002°16'0 0.0
2017-Jun-21 15:26N 51°03' E 002°16'0 0.0
2017-Jun-21 14:58N 51°03' E 002°16'0 0.0
2017-Jun-21 14:28N 51°03' E 002°16'0 0.0
2017-Jun-21 13:30N 51°03' E 002°16'0 0.0
2017-Jun-21 12:59N 51°03' E 002°16'0 0.6
2017-Jun-21 12:28N 51°03' E 002°17'2 4.8
2017-Jun-21 12:00N 51°03' E 002°20'0 0.5
2017-Jun-21 11:25N 51°03' E 002°21'2 4.1
2017-Jun-21 10:59N 51°04' E 002°18'510.6
2017-Jun-21 10:30N 51°03' E 002°10'510.5
2017-Jun-21 10:00N 51°02' E 002°02'611.5
2017-Jun-21 09:30N 51°02' E 001°53'510.6
2017-Jun-21 09:00N 51°03' E 001°44'4 8.6
2017-Jun-21 08:30N 51°06' E 001°40'3 5.6
2017-Jun-21 08:00N 51°09' E 001°41'4 8.4
2017-Jun-21 07:30N 51°12' E 001°45'5 9.2
2017-Jun-21 07:00N 51°16' E 001°50'510.2
2017-Jun-21 06:30N 51°20' E 001°54'611.0
2017-Jun-21 06:00N 51°25' E 001°58'94 9.1
2017-Jun-20 19:41N 52°31' E 003°45'4 9.7
2017-Jun-20 19:17N 52°31' E 003°52'3 9.6
2017-Jun-20 18:59N 52°31' E 003°56'5 9.8
2017-Jun-20 18:30N 52°31' E 004°04'5 9.9
2017-Jun-20 18:00N 52°31' E 004°12'5 9.6
2017-Jun-20 17:30N 52°30' E 004°20'5 9.5
2017-Jun-20 17:00N 52°29' E 004°27'5 9.1
2017-Jun-20 16:30N 52°28' E 004°35'1 2.2
2017-Jun-20 16:00N 52°28' E 004°37'2 4.0
2017-Jun-20 15:30N 52°28' E 004°40'0 0.7
2017-Jun-20 15:00N 52°28' E 004°40'0 0.0
2017-Jun-20 14:00N 52°28' E 004°40'0 0.0
2017-Jun-20 13:24N 52°28' E 004°40'0 0.0
2017-Jun-20 12:57N 52°28' E 004°40'0 0.0
2017-Jun-20 12:16N 52°28' E 004°40'0 0.0
2017-Jun-20 11:58N 52°28' E 004°40'0 0.0
2017-Jun-20 11:24N 52°28' E 004°40'0 0.0
2017-Jun-20 10:53N 52°28' E 004°40'0 0.0
2017-Jun-20 10:26N 52°28' E 004°40'0 0.0
2017-Jun-20 09:54N 52°28' E 004°40'0 0.0
2017-Jun-20 08:51N 52°28' E 004°40'0 0.0
2017-Jun-20 07:29N 52°28' E 004°40'0 0.0
2017-Jun-20 06:58N 52°28' E 004°40'0 0.1
2017-Jun-20 06:26N 52°28' E 004°40'0 0.0
2017-Jun-20 05:52N 52°28' E 004°40'0 0.0
2017-Jun-20 05:29N 52°28' E 004°40'0 0.0
2017-Jun-20 04:56N 52°28' E 004°40'0 0.0
2017-Jun-20 04:26N 52°28' E 004°40'0 0.0
2017-Jun-20 03:59N 52°28' E 004°40'0 0.0
2017-Jun-20 03:30N 52°28' E 004°40'0 0.0
2017-Jun-20 02:58N 52°28' E 004°40'0 0.0
2017-Jun-20 02:27N 52°28' E 004°40'0 0.0
2017-Jun-20 01:59N 52°28' E 004°40'0 0.0
2017-Jun-20 01:30N 52°28' E 004°40'0 0.0
2017-Jun-20 00:50N 52°28' E 004°40'0 0.0
2017-Jun-20 00:23N 52°28' E 004°40'0 0.0
2017-Jun-20 00:00N 52°28' E 004°40'0 0.0
2017-Jun-19 23:30N 52°28' E 004°40'0 0.0
2017-Jun-19 22:56N 52°28' E 004°40'0 0.0
2017-Jun-19 22:10N 52°28' E 004°40'0 0.0
2017-Jun-19 21:54N 52°28' E 004°40'0 0.0
2017-Jun-19 21:28N 52°28' E 004°40'0 0.0
2017-Jun-19 20:58N 52°28' E 004°40'0 0.0
2017-Jun-19 20:25N 52°28' E 004°40'0 0.0
2017-Jun-19 19:46N 52°28' E 004°40'0 0.0
2017-Jun-19 19:24N 52°28' E 004°40'0 0.0
2017-Jun-19 18:50N 52°28' E 004°40'0 0.0
2017-Jun-19 18:30N 52°28' E 004°40'0 0.0
2017-Jun-19 18:00N 52°28' E 004°40'0 0.0
2017-Jun-19 17:29N 52°28' E 004°40'0 0.0
2017-Jun-19 16:58N 52°28' E 004°40'0 0.0
2017-Jun-19 16:23N 52°28' E 004°40'0 0.0
2017-Jun-19 15:47N 52°28' E 004°40'0 0.0
2017-Jun-19 15:17N 52°28' E 004°40'0 0.0
2017-Jun-19 14:59N 52°28' E 004°40'0 0.0
2017-Jun-19 14:29N 52°28' E 004°40'0 0.0
2017-Jun-19 13:24N 52°28' E 004°40'0 0.0
2017-Jun-19 13:01N 52°28' E 004°40'0 0.0
2017-Jun-19 12:29N 52°28' E 004°40'0 0.0
2017-Jun-19 11:47N 52°28' E 004°40'0 0.0
2017-Jun-19 11:31N 52°28' E 004°40'0 0.0
2017-Jun-19 10:54N 52°28' E 004°40'0 0.0
2017-Jun-19 10:28N 52°28' E 004°40'0 0.0
2017-Jun-19 09:59N 52°28' E 004°40'0 0.0
2017-Jun-19 09:24N 52°28' E 004°40'0 0.0
2017-Jun-19 08:59N 52°28' E 004°40'0 0.0
2017-Jun-19 08:30N 52°28' E 004°40'0 0.0
2017-Jun-19 07:56N 52°28' E 004°40'0 0.0
2017-Jun-19 07:27N 52°28' E 004°40'0 0.0
2017-Jun-19 06:53N 52°28' E 004°40'0 0.0
2017-Jun-19 06:30N 52°28' E 004°40'0 0.0
2017-Jun-19 05:59N 52°28' E 004°40'0 0.0
2017-Jun-19 05:26N 52°28' E 004°40'0 0.0
2017-Jun-19 04:58N 52°28' E 004°40'0 0.0
2017-Jun-19 04:31N 52°28' E 004°40'0 0.0
2017-Jun-19 04:00N 52°28' E 004°40'1 1.5
2017-Jun-19 03:30N 52°28' E 004°39'2 3.7
2017-Jun-19 03:00N 52°28' E 004°36'1 2.7
2017-Jun-19 02:30N 52°28' E 004°34'5 9.6
2017-Jun-19 02:00N 52°28' E 004°26'3 6.9
2017-Jun-19 01:30N 52°25' E 004°22'3 5.8
2017-Jun-19 01:00N 52°22' E 004°21'2 3.1
2017-Jun-19 00:30N 52°22' E 004°18'3 5.3
2017-Jun-19 00:00N 52°25' E 004°16'2 4.9
2017-Jun-18 23:30N 52°27' E 004°14'3 4.9
2017-Jun-18 22:49N 52°29' E 004°10'5 6.1
2017-Jun-18 22:04N 52°28' E 004°03'1 6.2
2017-Jun-18 21:52N 52°27' E 004°01'2 6.3
2017-Jun-18 21:30N 52°27' E 003°57'12 6.8
2017-Jun-18 19:43N 52°15' E 003°53'2 8.2
2017-Jun-18 19:28N 52°13' E 003°54'4 8.1
2017-Jun-18 19:00N 52°09' E 003°55'4 7.7
2017-Jun-18 18:30N 52°05' E 003°56'3 6.1
2017-Jun-18 18:00N 52°03' E 003°54'4 8.4
2017-Jun-18 17:31N 52°01' E 004°00'611.9
2017-Jun-18 17:01N 51°58' E 004°09'611.9
2017-Jun-18 16:30N 51°54' E 004°16'3 6.2
2017-Jun-18 16:00N 51°54' E 004°21'0 0.0
2017-Jun-18 15:30N 51°54' E 004°21'0 0.0
2017-Jun-18 15:00N 51°54' E 004°21'0 0.0
2017-Jun-18 14:00N 51°54' E 004°21'0 0.0
2017-Jun-18 13:30N 51°54' E 004°21'0 0.0
2017-Jun-18 13:00N 51°54' E 004°21'0 0.0
2017-Jun-18 12:29N 51°54' E 004°21'0 0.0
2017-Jun-18 12:00N 51°54' E 004°21'0 0.0
2017-Jun-18 11:29N 51°54' E 004°21'0 0.0
2017-Jun-18 11:00N 51°54' E 004°21'0 0.0
2017-Jun-18 10:22N 51°54' E 004°21'0 0.0
2017-Jun-18 10:00N 51°54' E 004°21'0 0.0
2017-Jun-18 09:30N 51°54' E 004°21'0 0.0
2017-Jun-18 09:00N 51°54' E 004°21'0 0.0
2017-Jun-18 08:30N 51°54' E 004°21'0 0.0
2017-Jun-18 08:00N 51°54' E 004°21'0 0.0
2017-Jun-18 07:29N 51°54' E 004°21'0 0.0
2017-Jun-18 07:00N 51°54' E 004°21'0 0.0
2017-Jun-18 06:30N 51°54' E 004°21'0 0.0
2017-Jun-18 06:00N 51°54' E 004°21'0 0.0
2017-Jun-18 05:30N 51°54' E 004°21'0 0.0
2017-Jun-18 05:00N 51°54' E 004°21'0 0.0
2017-Jun-18 04:30N 51°54' E 004°21'0 0.0
2017-Jun-18 03:55N 51°54' E 004°21'0 0.0
2017-Jun-18 03:30N 51°54' E 004°21'0 0.0
2017-Jun-18 03:00N 51°54' E 004°21'0 0.0
2017-Jun-18 02:30N 51°54' E 004°21'0 0.0
2017-Jun-18 02:00N 51°54' E 004°21'0 0.0
2017-Jun-18 01:23N 51°54' E 004°21'0 0.0
2017-Jun-18 01:00N 51°54' E 004°21'0 0.0
2017-Jun-18 00:30N 51°54' E 004°21'0 0.0
2017-Jun-18 00:00N 51°54' E 004°21'0 0.0
2017-Jun-17 23:30N 51°54' E 004°21'0 0.0
2017-Jun-17 23:00N 51°54' E 004°21'0 0.0
2017-Jun-17 22:30N 51°54' E 004°21'0 0.0
2017-Jun-17 22:00N 51°54' E 004°21'0 0.0
2017-Jun-17 21:30N 51°54' E 004°21'0 0.0
2017-Jun-17 21:00N 51°54' E 004°21'0 0.0
2017-Jun-17 20:30N 51°54' E 004°21'0 0.0
2017-Jun-17 20:00N 51°54' E 004°21'0 0.0
2017-Jun-17 19:30N 51°54' E 004°21'0 0.0
2017-Jun-17 19:00N 51°54' E 004°21'0 0.0
2017-Jun-17 18:30N 51°54' E 004°21'0 0.0
2017-Jun-17 18:00N 51°54' E 004°21'0 0.0
2017-Jun-17 17:25N 51°54' E 004°21'0 0.0
2017-Jun-17 17:00N 51°54' E 004°21'0 0.0
2017-Jun-17 16:30N 51°54' E 004°21'0 0.0
2017-Jun-17 15:59N 51°54' E 004°21'0 0.0
2017-Jun-17 15:30N 51°54' E 004°21'0 0.0
2017-Jun-17 15:00N 51°54' E 004°21'0 0.0
2017-Jun-17 14:00N 51°54' E 004°21'0 0.0
2017-Jun-17 13:30N 51°54' E 004°21'0 0.0
2017-Jun-17 13:00N 51°54' E 004°21'0 0.0
2017-Jun-17 12:30N 51°54' E 004°21'0 0.0
2017-Jun-17 12:00N 51°54' E 004°21'0 0.0
2017-Jun-17 11:30N 51°54' E 004°21'0 0.0
2017-Jun-17 11:00N 51°54' E 004°21'0 0.0
2017-Jun-17 10:30N 51°54' E 004°21'0 0.0
2017-Jun-17 10:00N 51°54' E 004°21'0 0.0
2017-Jun-17 09:30N 51°54' E 004°21'0 0.0
2017-Jun-17 09:00N 51°54' E 004°21'0 0.0
2017-Jun-17 08:30N 51°54' E 004°21'0 0.0
2017-Jun-17 08:00N 51°54' E 004°21'0 0.0
2017-Jun-17 07:30N 51°54' E 004°21'0 0.0
2017-Jun-17 07:00N 51°54' E 004°21'0 0.0
2017-Jun-17 06:30N 51°54' E 004°21'0 0.0
2017-Jun-17 06:00N 51°54' E 004°21'0 0.0
2017-Jun-17 05:30N 51°54' E 004°21'0 0.0
2017-Jun-17 05:00N 51°54' E 004°21'0 0.0
2017-Jun-17 04:30N 51°54' E 004°21'0 0.0
2017-Jun-17 04:00N 51°54' E 004°21'0 0.0
2017-Jun-17 03:30N 51°54' E 004°21'0 0.0
2017-Jun-17 03:00N 51°54' E 004°21'0 0.0
2017-Jun-17 02:30N 51°54' E 004°21'0 0.0
2017-Jun-17 02:00N 51°54' E 004°21'0 0.0
2017-Jun-17 01:30N 51°54' E 004°21'0 0.0
2017-Jun-17 01:00N 51°54' E 004°21'0 0.0
2017-Jun-17 00:30N 51°54' E 004°21'0 0.0
2017-Jun-17 00:00N 51°54' E 004°21'0 0.0
2017-Jun-16 23:30N 51°54' E 004°21'0 0.0
2017-Jun-16 23:00N 51°54' E 004°21'0 0.0
2017-Jun-16 22:30N 51°54' E 004°21'0 0.0
2017-Jun-16 22:00N 51°54' E 004°21'0 0.0
2017-Jun-16 21:30N 51°54' E 004°21'0 0.0
2017-Jun-16 21:00N 51°54' E 004°21'0 0.0
2017-Jun-16 20:30N 51°54' E 004°21'0 0.0
2017-Jun-16 20:00N 51°54' E 004°21'0 0.0
2017-Jun-16 19:30N 51°54' E 004°21'0 0.0
2017-Jun-16 19:00N 51°54' E 004°21'0 0.0
2017-Jun-16 18:30N 51°54' E 004°21'0 0.0
2017-Jun-16 18:00N 51°54' E 004°21'0 0.0
2017-Jun-16 17:30N 51°54' E 004°21'0 0.0
2017-Jun-16 17:00N 51°54' E 004°21'0 0.0
2017-Jun-16 16:30N 51°54' E 004°21'0 0.0
2017-Jun-16 16:00N 51°54' E 004°21'0 0.0
2017-Jun-16 15:30N 51°54' E 004°21'0 0.0
2017-Jun-16 15:00N 51°54' E 004°21'0 0.0
2017-Jun-16 14:30N 51°54' E 004°21'0 0.0
2017-Jun-16 13:30N 51°54' E 004°21'0 0.0
2017-Jun-16 13:00N 51°54' E 004°21'0 0.0
2017-Jun-16 12:30N 51°54' E 004°21'0 0.0
2017-Jun-16 12:00N 51°54' E 004°21'0 0.0
2017-Jun-16 11:30N 51°54' E 004°21'0 0.0
2017-Jun-16 11:00N 51°54' E 004°21'0 0.0
2017-Jun-16 10:30N 51°54' E 004°21'0 0.0
2017-Jun-16 10:00N 51°54' E 004°21'0 0.0
2017-Jun-16 09:30N 51°54' E 004°21'0 0.0
2017-Jun-16 09:00N 51°54' E 004°21'0 0.0
2017-Jun-16 08:30N 51°54' E 004°21'1 3.0
2017-Jun-16 08:00N 51°54' E 004°19'510.1
2017-Jun-16 07:31N 51°56' E 004°12'510.6
2017-Jun-16 07:00N 51°59' E 004°05'510.7
2017-Jun-16 06:30N 51°60' E 003°56'5 9.2
2017-Jun-16 06:00N 52°00' E 003°49'64 8.4
2017-Jun-15 22:25N 51°52' E 002°06'4 8.8
2017-Jun-15 22:00N 51°50' E 002°01'5 9.2
2017-Jun-15 21:30N 51°48' E 001°54'5 9.1
2017-Jun-15 21:00N 51°49' E 001°46'510.0
2017-Jun-15 20:30N 51°50' E 001°39'4 8.0
2017-Jun-15 20:00N 51°53' E 001°34'4 8.3
2017-Jun-15 19:30N 51°56' E 001°29'510.1
2017-Jun-15 19:00N 51°56' E 001°21'4 8.3
2017-Jun-15 18:30N 51°59' E 001°17'4 7.7
2017-Jun-15 18:00N 52°01' E 001°11'2 4.1
2017-Jun-15 17:30N 52°02' E 001°09'0 0.2
2017-Jun-15 17:00N 52°02' E 001°09'0 0.0
2017-Jun-15 16:29N 52°02' E 001°09'0 0.0
2017-Jun-15 15:56N 52°02' E 001°09'0 0.0
2017-Jun-15 15:29N 52°02' E 001°09'0 0.0
2017-Jun-15 14:59N 52°02' E 001°09'0 0.0
2017-Jun-15 13:59N 52°02' E 001°09'0 0.0
2017-Jun-15 13:29N 52°02' E 001°09'0 0.0
2017-Jun-15 12:59N 52°02' E 001°09'0 0.0
2017-Jun-15 12:29N 52°02' E 001°09'0 0.0
2017-Jun-15 11:59N 52°02' E 001°09'0 0.0
2017-Jun-15 11:29N 52°02' E 001°09'0 0.0
2017-Jun-15 10:59N 52°02' E 001°09'0 0.0
2017-Jun-15 10:29N 52°02' E 001°09'0 0.0
2017-Jun-15 09:59N 52°02' E 001°09'0 0.0
2017-Jun-15 09:29N 52°02' E 001°09'0 0.0
2017-Jun-15 08:59N 52°02' E 001°09'0 0.0
2017-Jun-15 08:29N 52°02' E 001°09'0 0.0
2017-Jun-15 07:59N 52°02' E 001°09'0 0.0
2017-Jun-15 07:29N 52°02' E 001°09'0 0.0
2017-Jun-15 06:59N 52°02' E 001°09'0 0.0
2017-Jun-15 06:29N 52°02' E 001°09'0 0.0
2017-Jun-15 05:59N 52°02' E 001°09'0 0.0
2017-Jun-15 05:29N 52°02' E 001°09'0 0.0
2017-Jun-15 04:59N 52°02' E 001°09'0 0.0
2017-Jun-15 04:29N 52°02' E 001°09'0 0.0
2017-Jun-15 03:59N 52°02' E 001°09'0 0.0
2017-Jun-15 03:29N 52°02' E 001°09'0 0.0
2017-Jun-15 02:59N 52°02' E 001°09'0 0.0
2017-Jun-15 02:29N 52°02' E 001°09'0 0.0
2017-Jun-15 01:59N 52°02' E 001°09'0 0.0
2017-Jun-15 01:29N 52°02' E 001°09'0 0.0
2017-Jun-15 00:59N 52°02' E 001°09'0 0.0
2017-Jun-15 00:29N 52°02' E 001°09'0 0.0
2017-Jun-14 23:59N 52°02' E 001°09'0 0.0
2017-Jun-14 23:29N 52°02' E 001°09'0 0.0
2017-Jun-14 22:59N 52°02' E 001°09'0 0.0
2017-Jun-14 22:29N 52°02' E 001°09'0 0.0
2017-Jun-14 21:59N 52°02' E 001°09'0 0.0
2017-Jun-14 21:29N 52°02' E 001°09'0 0.0
2017-Jun-14 20:59N 52°02' E 001°09'0 0.0
2017-Jun-14 20:29N 52°02' E 001°09'0 0.0
2017-Jun-14 19:59N 52°02' E 001°09'0 0.0
2017-Jun-14 19:29N 52°02' E 001°09'0 0.0
2017-Jun-14 18:59N 52°02' E 001°09'0 0.0
2017-Jun-14 18:29N 52°02' E 001°09'0 0.0
2017-Jun-14 17:59N 52°02' E 001°09'0 0.0
2017-Jun-14 17:29N 52°02' E 001°09'0 0.0
2017-Jun-14 16:59N 52°02' E 001°09'0 0.0
2017-Jun-14 16:30N 52°02' E 001°09'0 0.0
2017-Jun-14 16:00N 52°02' E 001°09'0 0.0
2017-Jun-14 15:30N 52°02' E 001°09'0 0.0
2017-Jun-14 14:58N 52°02' E 001°09'0 0.0
2017-Jun-14 13:58N 52°02' E 001°09'0 0.0
2017-Jun-14 13:30N 52°02' E 001°09'0 0.0
2017-Jun-14 13:00N 52°02' E 001°09'0 0.0
2017-Jun-14 12:30N 52°02' E 001°09'0 0.0
2017-Jun-14 12:00N 52°02' E 001°09'0 0.0
2017-Jun-14 11:30N 52°02' E 001°09'0 0.0
2017-Jun-14 11:00N 52°02' E 001°09'0 0.0
2017-Jun-14 10:30N 52°02' E 001°09'0 0.0
2017-Jun-14 10:00N 52°02' E 001°09'0 0.0
2017-Jun-14 09:30N 52°02' E 001°09'0 0.0
2017-Jun-14 09:00N 52°02' E 001°09'0 0.0
2017-Jun-14 08:30N 52°02' E 001°09'0 0.0
2017-Jun-14 07:57N 52°02' E 001°09'0 0.0
2017-Jun-14 07:30N 52°02' E 001°09'0 0.0
2017-Jun-14 07:00N 52°02' E 001°09'0 0.0
2017-Jun-14 06:30N 52°02' E 001°09'0 0.0
2017-Jun-14 06:00N 52°02' E 001°09'0 0.0
2017-Jun-14 05:30N 52°02' E 001°09'0 0.0
2017-Jun-14 05:00N 52°02' E 001°09'2 4.6
2017-Jun-14 04:30N 52°00' E 001°12'4 7.3
2017-Jun-14 04:00N 51°58' E 001°17'4 7.7
2017-Jun-14 03:30N 51°56' E 001°21'5 9.4
2017-Jun-14 03:01N 51°57' E 001°28'3 6.7
2017-Jun-14 02:30N 51°57' E 001°34'2 3.0
2017-Jun-14 02:00N 51°58' E 001°36'3 5.4
2017-Jun-14 01:30N 51°56' E 001°34'  

Dump ship's entire track history